createdAt,value
2022-10-13T00:00:18.532Z,29.26
2022-10-13T00:02:49.402Z,29.29
2022-10-13T00:05:20.029Z,29.49
2022-10-13T00:07:50.425Z,29.54
2022-10-13T00:10:20.923Z,29.58
2022-10-13T00:12:52.144Z,29.51
2022-10-13T00:15:26.950Z,29.65
2022-10-13T00:17:57.365Z,29.70
2022-10-13T00:20:27.847Z,29.72
2022-10-13T00:22:58.201Z,29.74
2022-10-13T00:25:28.718Z,29.67
2022-10-13T00:27:59.328Z,29.74
2022-10-13T00:30:39.730Z,29.81
2022-10-13T00:33:11.581Z,29.83
2022-10-13T00:35:48.504Z,29.87
2022-10-13T00:38:24.245Z,29.37
2022-10-13T00:40:58.045Z,29.82
2022-10-13T00:43:48.841Z,29.87
2022-10-13T00:46:19.303Z,29.93
2022-10-13T00:48:53.761Z,29.96
2022-10-13T00:51:29.175Z,29.83
2022-10-13T00:54:01.136Z,29.90
2022-10-13T00:56:32.008Z,29.97
2022-10-13T00:59:02.980Z,29.99
2022-10-13T01:01:33.500Z,30.01
2022-10-13T01:04:04.991Z,29.94
2022-10-13T01:06:35.871Z,30.05
2022-10-13T01:09:06.430Z,30.05
2022-10-13T01:11:48.396Z,30.05
2022-10-13T01:14:33.403Z,29.61
2022-10-13T01:17:40.485Z,29.95
2022-10-13T01:20:11.007Z,30.07
2022-10-13T01:23:13.486Z,30.01
2022-10-13T01:25:49.247Z,29.68
2022-10-13T01:28:28.381Z,30.02
2022-10-13T01:31:11.621Z,29.38
2022-10-13T01:33:56.775Z,30.05
2022-10-13T01:37:15.889Z,29.80
2022-10-13T01:40:08.232Z,30.07
2022-10-13T01:42:43.463Z,29.72
2022-10-13T01:45:23.376Z,30.11
2022-10-13T01:47:54.471Z,30.16
2022-10-13T01:50:25.038Z,30.16
2022-10-13T01:52:57.340Z,30.15
2022-10-13T01:55:30.171Z,30.21
2022-10-13T01:58:00.590Z,30.20
2022-10-13T02:00:36.952Z,29.90
2022-10-13T02:03:32.771Z,29.66
2022-10-13T02:06:17.236Z,30.21
2022-10-13T02:09:04.872Z,30.14
2022-10-13T02:11:35.706Z,30.32
2022-10-13T02:14:15.832Z,29.48
2022-10-13T02:16:48.600Z,30.23
2022-10-13T02:19:20.636Z,29.83
2022-10-13T02:21:50.930Z,30.00
2022-10-13T02:24:21.765Z,30.33
2022-10-13T02:26:53.418Z,30.39
2022-10-13T02:29:23.929Z,30.39
2022-10-13T02:31:55.882Z,30.45
2022-10-13T02:34:26.300Z,30.45
2022-10-13T02:36:56.680Z,30.47
2022-10-13T02:39:27.022Z,30.49
2022-10-13T02:41:57.510Z,30.48
2022-10-13T02:44:28.420Z,30.42
2022-10-13T02:46:58.818Z,30.54
2022-10-13T02:49:29.590Z,30.55
2022-10-13T02:52:00.057Z,30.59
2022-10-13T02:54:30.527Z,30.62
2022-10-13T02:57:01.049Z,30.63
2022-10-13T02:59:31.742Z,30.67
2022-10-13T03:02:02.240Z,30.68
2022-10-13T03:04:33.531Z,30.68
2022-10-13T03:07:07.559Z,30.72
2022-10-13T03:09:38.181Z,30.75
2022-10-13T03:12:09.169Z,30.66
2022-10-13T03:14:40.575Z,30.79
2022-10-13T03:17:13.494Z,30.69
2022-10-13T03:19:44.666Z,30.85
2022-10-13T03:22:20.446Z,30.77
2022-10-13T03:24:52.685Z,30.83
2022-10-13T03:27:23.461Z,30.91
2022-10-13T03:29:56.748Z,30.94
2022-10-13T03:32:27.377Z,30.93
2022-10-13T03:34:57.824Z,30.99
2022-10-13T03:37:31.682Z,31.01
2022-10-13T03:40:01.995Z,31.02
2022-10-13T03:42:32.471Z,31.04
2022-10-13T03:45:03.457Z,31.05
2022-10-13T03:47:39.176Z,30.99
2022-10-13T03:50:10.052Z,31.11
2022-10-13T03:52:40.668Z,30.97
2022-10-13T03:55:11.187Z,31.14
2022-10-13T03:57:41.597Z,31.13
2022-10-13T04:00:12.861Z,31.16
2022-10-13T04:02:43.329Z,31.09
2022-10-13T04:05:14.379Z,31.17
2022-10-13T04:07:44.915Z,31.22
2022-10-13T04:10:22.033Z,31.24
2022-10-13T04:12:52.649Z,31.23
2022-10-13T04:15:23.072Z,31.21
2022-10-13T04:17:54.015Z,31.27
2022-10-13T04:20:24.842Z,31.21
2022-10-13T04:22:56.503Z,31.27
2022-10-13T04:25:27.444Z,31.31
2022-10-13T04:27:57.922Z,31.30
2022-10-13T04:30:28.315Z,31.33
2022-10-13T04:32:58.759Z,31.34
2022-10-13T04:35:29.302Z,31.34
2022-10-13T04:37:59.761Z,31.37
2022-10-13T04:40:30.399Z,30.98
2022-10-13T04:43:00.849Z,31.40
2022-10-13T04:45:31.639Z,31.42
2022-10-13T04:48:02.733Z,31.46
2022-10-13T04:50:33.248Z,31.44
2022-10-13T04:53:03.622Z,31.46
2022-10-13T04:55:36.796Z,31.46
2022-10-13T04:58:07.235Z,31.53
2022-10-13T05:00:37.807Z,31.55
2022-10-13T05:03:08.820Z,31.56
2022-10-13T05:05:39.210Z,31.53
2022-10-13T05:08:09.750Z,31.60
2022-10-13T05:10:41.556Z,31.64
2022-10-13T05:13:12.130Z,31.64
2022-10-13T05:15:42.668Z,31.64
2022-10-13T05:18:13.652Z,31.69
2022-10-13T05:20:44.307Z,31.67
2022-10-13T05:23:16.893Z,31.75
2022-10-13T05:25:47.363Z,31.69
2022-10-13T05:28:21.180Z,31.73
2022-10-13T05:30:51.617Z,31.78
2022-10-13T05:33:24.819Z,31.81
2022-10-13T05:35:58.110Z,31.84
2022-10-13T05:38:28.498Z,31.36
2022-10-13T05:41:04.884Z,31.40
2022-10-13T05:43:36.237Z,31.90
2022-10-13T05:46:07.304Z,31.91
2022-10-13T05:48:40.702Z,31.33
2022-10-13T05:51:46.694Z,31.81
2022-10-13T05:54:31.903Z,31.91
2022-10-13T05:57:08.168Z,31.92
2022-10-13T05:59:47.759Z,32.01
2022-10-13T06:02:21.426Z,31.47
2022-10-13T06:04:56.875Z,31.80
2022-10-13T06:07:27.616Z,32.10
2022-10-13T06:09:59.758Z,31.91
2022-10-13T06:12:31.762Z,32.13
2022-10-13T06:15:02.453Z,32.17
2022-10-13T06:17:33.070Z,32.18
2022-10-13T06:20:03.489Z,32.24
2022-10-13T06:22:35.448Z,31.84
2022-10-13T06:25:08.453Z,31.95
2022-10-13T06:27:38.864Z,32.28
2022-10-13T06:30:10.055Z,32.33
2022-10-13T06:32:40.660Z,32.35
2022-10-13T06:35:11.438Z,32.37
2022-10-13T06:37:41.932Z,32.38
2022-10-13T06:40:13.615Z,32.41
2022-10-13T06:42:44.080Z,32.45
2022-10-13T06:45:14.549Z,32.49
2022-10-13T06:47:45.011Z,32.51
2022-10-13T06:50:15.718Z,32.53
2022-10-13T06:52:46.165Z,32.55
2022-10-13T06:55:17.157Z,32.56
2022-10-13T06:57:47.816Z,32.47
2022-10-13T07:00:18.652Z,32.55
2022-10-13T07:02:53.531Z,32.61
2022-10-13T07:05:24.131Z,32.63
2022-10-13T07:07:57.523Z,32.64
2022-10-13T07:10:28.008Z,32.67
2022-10-13T07:12:59.141Z,32.69
2022-10-13T07:15:29.913Z,32.66
2022-10-13T07:18:00.450Z,32.73
2022-10-13T07:20:31.452Z,32.74
2022-10-13T07:23:02.679Z,32.70
2022-10-13T07:25:33.084Z,32.76
2022-10-13T07:28:03.525Z,32.81
2022-10-13T07:30:33.981Z,32.81
2022-10-13T07:33:04.856Z,32.80
2022-10-13T07:35:35.448Z,32.77
2022-10-13T07:38:06.026Z,32.84
2022-10-13T07:40:36.904Z,32.86
2022-10-13T07:43:07.271Z,32.65
2022-10-13T07:45:37.936Z,32.87
2022-10-13T07:48:08.862Z,32.87
2022-10-13T07:50:39.532Z,32.90
2022-10-13T07:53:10.096Z,32.91
2022-10-13T07:55:40.776Z,32.87
2022-10-13T07:58:12.019Z,32.84
2022-10-13T08:00:42.943Z,32.91
2022-10-13T08:03:13.363Z,32.93
2022-10-13T08:05:43.759Z,32.91
2022-10-13T08:08:14.215Z,32.96
2022-10-13T08:10:44.710Z,32.91
2022-10-13T08:13:15.628Z,32.99
2022-10-13T08:15:47.506Z,32.99
2022-10-13T08:18:18.327Z,33.00
2022-10-13T08:20:48.710Z,33.02
2022-10-13T08:23:21.236Z,33.04
2022-10-13T08:25:54.844Z,33.03
2022-10-13T08:28:29.419Z,33.07
2022-10-13T08:31:00.702Z,33.08
2022-10-13T08:33:31.149Z,33.08
2022-10-13T08:36:01.634Z,33.10
2022-10-13T08:38:32.070Z,32.98
2022-10-13T08:41:03.974Z,33.10
2022-10-13T08:43:34.511Z,33.13
2022-10-13T08:46:04.950Z,33.15
2022-10-13T08:48:43.274Z,32.36
2022-10-13T08:51:17.011Z,32.68
2022-10-13T08:53:49.252Z,33.20
2022-10-13T08:56:33.434Z,32.76
2022-10-13T08:59:06.405Z,32.85
2022-10-13T09:01:38.319Z,33.24
2022-10-13T09:04:09.627Z,33.24
2022-10-13T09:06:51.230Z,33.21
2022-10-13T09:09:21.976Z,33.27
2022-10-13T09:11:53.631Z,33.28
2022-10-13T09:14:28.955Z,33.12
2022-10-13T09:17:24.638Z,33.19
2022-10-13T09:20:21.751Z,33.27
2022-10-13T09:23:08.685Z,32.80
2022-10-13T09:25:44.510Z,32.16
2022-10-13T09:28:25.574Z,32.62
2022-10-13T09:31:15.506Z,32.51
2022-10-13T09:33:46.953Z,32.48
2022-10-13T09:36:18.060Z,32.46
2022-10-13T09:39:18.788Z,32.35
2022-10-13T09:41:49.399Z,32.21
2022-10-13T09:44:33.101Z,31.97
2022-10-13T09:47:05.750Z,31.90
2022-10-13T09:49:40.832Z,32.36
2022-10-13T09:52:14.202Z,32.37
2022-10-13T09:54:47.831Z,32.35
2022-10-13T09:57:37.816Z,32.30
2022-10-13T10:00:29.075Z,31.74
2022-10-13T10:03:05.103Z,32.29
2022-10-13T10:05:56.708Z,32.26
2022-10-13T10:09:02.718Z,32.18
2022-10-13T10:11:43.738Z,32.14
2022-10-13T10:14:26.464Z,32.18
2022-10-13T10:17:23.324Z,32.24
2022-10-13T10:20:31.739Z,32.16
2022-10-13T10:23:35.040Z,32.12
2022-10-13T10:26:23.621Z,31.73
2022-10-13T10:29:08.945Z,31.94
2022-10-13T10:32:20.102Z,32.17
2022-10-13T10:35:45.209Z,32.07
2022-10-13T10:38:36.648Z,32.16
2022-10-13T10:41:31.838Z,32.11
2022-10-13T10:44:31.410Z,32.09
2022-10-13T10:47:08.449Z,32.18
2022-10-13T10:49:40.551Z,32.19
2022-10-13T10:52:13.749Z,31.94
2022-10-13T10:55:05.707Z,32.04
2022-10-13T10:57:54.792Z,32.33
2022-10-13T11:03:30.625Z,32.51
2022-10-13T11:06:07.235Z,32.58
2022-10-13T11:08:44.640Z,32.67
2022-10-13T11:11:38.110Z,32.59
2022-10-13T11:14:31.661Z,32.60
2022-10-13T11:17:08.372Z,32.70
2022-10-13T11:19:40.874Z,32.69
2022-10-13T11:22:19.909Z,32.75
2022-10-13T11:24:57.731Z,32.75
2022-10-13T11:27:38.740Z,32.74
2022-10-13T11:30:42.302Z,32.63
2022-10-13T11:33:40.381Z,32.63
2022-10-13T11:36:30.977Z,32.62
2022-10-13T11:42:07.918Z,32.69
2022-10-13T11:44:55.905Z,32.66
2022-10-13T11:48:03.076Z,32.61
2022-10-13T11:51:00.991Z,32.63
2022-10-13T11:54:01.817Z,32.07
2022-10-13T11:56:48.776Z,32.13
2022-10-13T11:59:34.655Z,32.25
2022-10-13T12:02:16.977Z,32.64
2022-10-13T12:05:10.472Z,31.73
2022-10-13T12:07:43.896Z,32.51
2022-10-13T12:10:41.114Z,32.20
2022-10-13T12:13:25.672Z,32.53
2022-10-13T12:16:02.506Z,32.59
2022-10-13T12:18:36.949Z,32.43
2022-10-13T12:21:17.333Z,32.58
2022-10-13T12:23:49.114Z,32.55
2022-10-13T12:26:22.953Z,32.54
2022-10-13T12:28:58.027Z,32.05
2022-10-13T12:31:44.470Z,32.41
2022-10-13T12:34:32.964Z,32.46
2022-10-13T12:37:20.051Z,32.51
2022-10-13T12:39:51.251Z,32.48
2022-10-13T12:42:31.324Z,31.97
2022-10-13T12:45:03.761Z,32.08
2022-10-13T12:47:46.342Z,32.00
2022-10-13T12:50:31.727Z,31.89
2022-10-13T12:53:05.294Z,31.84
2022-10-13T12:55:39.824Z,31.82
2022-10-13T12:58:24.187Z,31.26
2022-10-13T13:01:16.022Z,31.55
2022-10-13T13:03:48.577Z,31.69
2022-10-13T13:06:18.971Z,31.66
2022-10-13T13:12:25.072Z,31.55
2022-10-13T13:14:56.532Z,31.63
2022-10-13T13:17:53.304Z,31.60
2022-10-13T13:20:32.058Z,31.56
2022-10-13T13:23:02.659Z,31.44
2022-10-13T13:25:33.283Z,31.66
2022-10-13T13:28:11.535Z,31.15
2022-10-13T13:30:42.849Z,31.48
2022-10-13T13:33:13.276Z,31.42
2022-10-13T13:35:43.882Z,31.47
2022-10-13T13:38:14.449Z,31.38
2022-10-13T13:40:45.628Z,31.23
2022-10-13T13:43:17.137Z,31.05
2022-10-13T13:45:47.944Z,31.14
2022-10-13T13:48:18.455Z,31.01
2022-10-13T13:50:49.028Z,31.00
2022-10-13T13:53:19.552Z,30.97
2022-10-13T13:55:50.109Z,30.94
2022-10-13T13:58:21.901Z,30.90
2022-10-13T14:00:55.983Z,30.90
2022-10-13T14:03:26.543Z,30.86
2022-10-13T14:06:03.461Z,30.86
2022-10-13T14:08:45.177Z,30.79
2022-10-13T14:11:16.107Z,30.60
2022-10-13T14:13:46.619Z,30.69
2022-10-13T14:16:19.633Z,30.64
2022-10-13T14:18:51.813Z,30.64
2022-10-13T14:21:22.471Z,30.63
2022-10-13T14:23:53.344Z,30.56
2022-10-13T14:26:24.816Z,30.53
2022-10-13T14:28:55.809Z,30.48
2022-10-13T14:31:26.773Z,30.48
2022-10-13T14:33:57.266Z,30.41
2022-10-13T14:36:28.474Z,30.06
2022-10-13T14:38:59.223Z,30.39
2022-10-13T14:41:29.854Z,30.19
2022-10-13T14:44:01.128Z,30.32
2022-10-13T14:46:31.741Z,30.28
2022-10-13T14:49:02.485Z,30.20
2022-10-13T14:51:34.243Z,29.88
2022-10-13T14:54:05.600Z,30.22
2022-10-13T14:56:37.151Z,30.22
2022-10-13T14:59:08.418Z,30.20
2022-10-13T15:01:42.849Z,30.18
2022-10-13T15:04:13.508Z,30.12
2022-10-13T15:06:44.041Z,30.13
2022-10-13T15:09:14.723Z,30.09
2022-10-13T15:11:47.231Z,29.84
2022-10-13T15:14:17.600Z,30.27
2022-10-13T15:16:48.042Z,30.17
2022-10-13T15:19:21.018Z,30.35
2022-10-13T15:21:52.481Z,30.31
2022-10-13T15:24:24.355Z,30.25
2022-10-13T15:26:55.554Z,30.34
2022-10-13T15:29:29.966Z,30.23
2022-10-13T15:32:13.006Z,29.90
2022-10-13T15:34:44.440Z,30.43
2022-10-13T15:37:15.322Z,30.42
2022-10-13T15:39:45.980Z,30.40
2022-10-13T15:42:16.445Z,30.40
2022-10-13T15:47:38.152Z,30.31
2022-10-13T15:50:10.129Z,30.34
2022-10-13T15:52:40.965Z,29.99
2022-10-13T15:55:12.993Z,30.28
2022-10-13T15:57:42.973Z,29.96
2022-10-13T16:00:15.142Z,30.17
2022-10-13T16:02:46.551Z,30.25
2022-10-13T16:05:17.081Z,29.87
2022-10-13T16:07:47.616Z,30.31
2022-10-13T16:10:18.519Z,30.28
2022-10-13T16:12:49.847Z,30.23
2022-10-13T16:15:21.089Z,30.20
2022-10-13T16:17:54.530Z,29.78
2022-10-13T16:20:25.276Z,30.21
2022-10-13T16:22:56.034Z,30.13
2022-10-13T16:25:26.473Z,30.05
2022-10-13T16:27:56.864Z,30.10
2022-10-13T16:30:27.815Z,30.13
2022-10-13T16:32:59.081Z,30.14
2022-10-13T16:35:30.016Z,30.04
2022-10-13T16:38:00.408Z,30.10
2022-10-13T16:40:30.864Z,30.07
2022-10-13T16:43:01.313Z,30.01
2022-10-13T16:45:55.124Z,30.02
2022-10-13T16:48:22.828Z,30.04
2022-10-13T16:50:54.566Z,30.04
2022-10-13T16:53:26.270Z,29.93
2022-10-13T16:55:56.722Z,29.97
2022-10-13T16:58:27.140Z,29.99
2022-10-13T17:01:09.721Z,29.98
2022-10-13T17:03:41.479Z,29.97
2022-10-13T17:06:13.798Z,29.75
2022-10-13T17:08:45.575Z,29.96
2022-10-13T17:11:20.291Z,29.57
2022-10-13T17:13:51.435Z,29.89
2022-10-13T17:16:22.194Z,29.84
2022-10-13T17:18:53.204Z,29.85
2022-10-13T17:21:23.981Z,29.83
2022-10-13T17:24:13.004Z,29.79
2022-10-13T17:26:43.631Z,29.80
2022-10-13T17:29:14.425Z,29.69
2022-10-13T17:31:45.352Z,29.80
2022-10-13T17:34:15.792Z,29.78
2022-10-13T17:36:46.205Z,29.77
2022-10-13T17:39:18.630Z,29.77
2022-10-13T17:41:48.983Z,29.66
2022-10-13T17:44:21.729Z,29.70
2022-10-13T17:46:52.210Z,29.75
2022-10-13T17:49:22.623Z,29.76
2022-10-13T17:51:55.551Z,29.76
2022-10-13T17:54:26.021Z,29.63
2022-10-13T17:56:58.074Z,29.71
2022-10-13T17:59:28.048Z,29.32
2022-10-13T18:01:58.346Z,29.57
2022-10-13T18:04:30.460Z,29.65
2022-10-13T18:07:00.339Z,29.29
2022-10-13T18:09:30.896Z,29.59
2022-10-13T18:12:01.277Z,29.60
2022-10-13T18:14:31.770Z,29.61
2022-10-13T18:17:02.161Z,29.50
2022-10-13T18:19:36.550Z,29.58
2022-10-13T18:22:09.748Z,29.55
2022-10-13T18:24:40.512Z,29.54
2022-10-13T18:27:11.481Z,29.51
2022-10-13T18:29:43.735Z,29.50
2022-10-13T18:32:14.374Z,29.49
2022-10-13T18:34:45.337Z,29.48
2022-10-13T18:37:16.319Z,29.49
2022-10-13T18:39:48.768Z,29.33
2022-10-13T18:42:19.665Z,29.46
2022-10-13T18:44:49.979Z,29.46
2022-10-13T18:47:20.632Z,29.43
2022-10-13T18:49:51.578Z,29.42
2022-10-13T18:52:21.880Z,29.38
2022-10-13T18:54:52.993Z,29.36
2022-10-13T18:57:23.985Z,28.98
2022-10-13T18:59:54.852Z,29.29
2022-10-13T19:02:31.720Z,29.37
2022-10-13T19:05:02.117Z,29.40
2022-10-13T19:07:35.703Z,29.34
2022-10-13T19:10:10.501Z,29.36
2022-10-13T19:12:40.900Z,29.33
2022-10-13T19:15:11.371Z,29.35
2022-10-13T19:17:41.716Z,29.29
2022-10-13T19:20:12.842Z,29.29
2022-10-13T19:22:43.166Z,29.28
2022-10-13T19:25:18.507Z,29.27
2022-10-13T19:27:48.949Z,29.28
2022-10-13T19:30:19.844Z,29.28
2022-10-13T19:32:53.164Z,29.25
2022-10-13T19:35:24.251Z,29.23
2022-10-13T19:37:54.717Z,29.27
2022-10-13T19:40:29.024Z,29.25
2022-10-13T19:42:59.331Z,29.13
2022-10-13T19:45:29.826Z,29.26
2022-10-13T19:48:00.798Z,29.23
2022-10-13T19:50:33.891Z,29.24
2022-10-13T19:53:05.158Z,29.23
2022-10-13T19:55:49.833Z,29.14
2022-10-13T19:58:20.459Z,29.18
2022-10-13T20:00:51.299Z,29.15
2022-10-13T20:03:21.866Z,29.15
2022-10-13T20:05:54.079Z,29.14
2022-10-13T20:08:24.431Z,29.13
2022-10-13T20:10:55.336Z,29.05
2022-10-13T20:13:26.085Z,29.12
2022-10-13T20:16:11.387Z,29.04
2022-10-13T20:18:42.781Z,29.08
2022-10-13T20:21:14.450Z,28.62
2022-10-13T20:23:44.930Z,29.02
2022-10-13T20:26:15.702Z,29.04
2022-10-13T20:28:48.361Z,28.17
2022-10-13T20:31:21.639Z,29.01
2022-10-13T20:33:59.057Z,28.95
2022-10-13T20:36:38.290Z,28.94
2022-10-13T20:39:09.966Z,28.96
2022-10-13T20:41:40.501Z,28.95
2022-10-13T20:44:11.352Z,28.91
2022-10-13T20:46:41.816Z,28.90
2022-10-13T20:49:13.425Z,28.91
2022-10-13T20:51:44.618Z,28.88
2022-10-13T20:54:17.240Z,28.85
2022-10-13T20:56:48.338Z,28.89
2022-10-13T20:59:18.678Z,28.71
2022-10-13T21:01:49.079Z,28.85
2022-10-13T21:04:19.376Z,28.71
2022-10-13T21:06:49.818Z,28.83
2022-10-13T21:09:20.187Z,28.47
2022-10-13T21:11:51.273Z,28.83
2022-10-13T21:14:21.659Z,28.71
2022-10-13T21:16:51.992Z,28.80
2022-10-13T21:19:22.774Z,28.81
2022-10-13T21:21:53.252Z,28.73
2022-10-13T21:24:23.603Z,28.78
2022-10-13T21:26:54.004Z,28.79
2022-10-13T21:29:25.491Z,28.74
2022-10-13T21:31:55.916Z,28.75
2022-10-13T21:34:26.297Z,28.71
2022-10-13T21:36:56.742Z,28.74
2022-10-13T21:39:27.170Z,28.70
2022-10-13T21:41:57.620Z,28.70
2022-10-13T21:44:29.119Z,28.71
2022-10-13T21:46:59.458Z,28.73
2022-10-13T21:49:29.859Z,28.68
2022-10-13T21:52:00.327Z,28.70
2022-10-13T21:54:30.720Z,28.70
2022-10-13T21:57:02.346Z,28.67
2022-10-13T21:59:33.353Z,28.63
2022-10-13T22:02:04.492Z,28.62
2022-10-13T22:04:34.992Z,28.60
2022-10-13T22:07:05.852Z,28.65
2022-10-13T22:09:36.287Z,28.63
2022-10-13T22:12:06.897Z,28.61
2022-10-13T22:14:39.038Z,28.61
2022-10-13T22:17:09.660Z,28.46
2022-10-13T22:19:40.051Z,28.58
2022-10-13T22:22:10.461Z,28.59
2022-10-13T22:24:41.491Z,28.58
2022-10-13T22:27:11.914Z,28.57
2022-10-13T22:29:42.569Z,28.55
2022-10-13T22:32:13.026Z,28.56
2022-10-13T22:34:43.464Z,28.56
2022-10-13T22:37:13.897Z,28.52
2022-10-13T22:39:44.309Z,28.54
2022-10-13T22:42:15.413Z,28.51
2022-10-13T22:44:45.866Z,28.51
2022-10-13T22:47:16.362Z,28.48
2022-10-13T22:49:47.451Z,28.34
2022-10-13T22:52:20.050Z,28.41
2022-10-13T22:54:50.428Z,28.48
2022-10-13T22:57:22.382Z,28.46
2022-10-13T22:59:53.756Z,28.40
2022-10-13T23:02:24.555Z,28.31
2022-10-13T23:04:54.905Z,28.40
2022-10-13T23:07:25.335Z,28.41
2022-10-13T23:09:55.717Z,28.54
2022-10-13T23:12:26.164Z,28.48
2022-10-13T23:14:56.621Z,28.68
2022-10-13T23:17:27.071Z,28.73
2022-10-13T23:19:58.209Z,28.67
2022-10-13T23:22:29.307Z,28.82
2022-10-13T23:24:59.749Z,28.90
2022-10-13T23:27:30.178Z,28.82
2022-10-13T23:30:00.659Z,29.04
2022-10-13T23:32:31.582Z,29.08
2022-10-13T23:35:02.178Z,29.16
2022-10-13T23:37:35.066Z,29.22
2022-10-13T23:40:05.955Z,29.27
2022-10-13T23:42:36.266Z,29.31
2022-10-13T23:45:08.224Z,29.36
2022-10-13T23:47:38.691Z,29.42
2022-10-13T23:50:09.461Z,29.43
2022-10-13T23:52:39.911Z,29.46
2022-10-13T23:55:11.055Z,29.48
2022-10-13T23:57:41.590Z,29.67
